Flight Track Log - Related Links

Times and Time Zones

All times are in EDT time to prevent confusion due to time zone crossing. See the KAL315 flight status page for this flight to view local times or setup timezone preferences in your user account.

Time Position Orientation Groundspeed Altitude Reporting Facility
EDT Latitude Longitude Course Direction KTS MPH feet Rate Location/Type
10:52AM 37.3982 126.3934 213° Southwest  Level Estimated
10:53AM 37.3213 126.3315 213° Southwest  Level Estimated
10:54AM 37.2442 126.2696 213° Southwest  Level Estimated
10:55AM 37.1672 126.2079 213° Southwest  Level Estimated
10:56AM 37.0901 126.1464 213° Southwest  Level Estimated
10:57AM 37.0130 126.0850 212° Southwest  Level Estimated
10:58AM 36.9358 126.0236 212° Southwest  Level Estimated
10:59AM 36.8586 125.9624 212° Southwest  Level Estimated
11:00AM 36.7814 125.9014 212° Southwest  Level Estimated
11:01AM 36.7042 125.8404 212° Southwest  Level Estimated
11:02AM 36.6269 125.7796 212° Southwest  Level Estimated
11:03AM 36.5496 125.7189 212° Southwest  Level Estimated
11:04AM 36.4723 125.6583 212° Southwest  Level Estimated
11:05AM 36.3949 125.5979 212° Southwest  Level Estimated
11:06AM 36.3175 125.5376 212° Southwest  Level Estimated
11:07AM 36.2401 125.4773 212° Southwest  Level Estimated
11:08AM 36.1626 125.4172 212° Southwest  Level Estimated
11:09AM 36.0851 125.3573 212° Southwest  Level Estimated
11:10AM 36.0076 125.2974 212° Southwest  Level Estimated
11:11AM 35.9300 125.2377 212° Southwest  Level Estimated
11:12AM 35.8525 125.1780 212° Southwest  Level Estimated
11:13AM 35.7749 125.1185 212° Southwest  Level Estimated
11:14AM 35.6972 125.0591 212° Southwest  Level Estimated
11:15AM 35.6196 124.9998 212° Southwest  Level Estimated
11:16AM 35.5419 124.9407 212° Southwest  Level Estimated
11:17AM 35.4641 124.8816 212° Southwest  Level Estimated
11:18AM 35.3864 124.8227 212° Southwest  Level Estimated
11:19AM 35.3086 124.7639 212° Southwest  Level Estimated
11:20AM 35.2308 124.7052 212° Southwest  Level Estimated
11:21AM 35.1530 124.6466 212° Southwest  Level Estimated
11:22AM 35.0751 124.5881 212° Southwest  Level Estimated
11:23AM 34.9972 124.5297 212° Southwest  Level Estimated
11:24AM 34.9193 124.4715 212° Southwest  Level Estimated
11:25AM 34.8413 124.4133 211° Southwest  Level Estimated
11:26AM 34.7634 124.3553 211° Southwest  Level Estimated
11:27AM 34.6854 124.2974 211° Southwest  Level Estimated
11:28AM 34.6073 124.2395 211° Southwest  Level Estimated
11:29AM 34.5293 124.1818 211° Southwest  Level Estimated
11:30AM 34.4512 124.1242 211° Southwest  Level Estimated
11:31AM 34.3731 124.0667 211° Southwest  Level Estimated
11:32AM 34.2949 124.0093 211° Southwest  Level Estimated
11:33AM 34.2168 123.9520 211° Southwest  Level Estimated
11:34AM 34.1386 123.8949 211° Southwest  Level Estimated
11:35AM 34.0603 123.8378 211° Southwest  Level Estimated
11:36AM 33.9821 123.7808 211° Southwest  Level Estimated
11:37AM 33.9038 123.7240 211° Southwest  Level Estimated
11:38AM 33.8255 123.6672 211° Southwest  Level Estimated
11:39AM 33.7472 123.6106 211° Southwest  Level Estimated
11:40AM 33.6689 123.5540 211° Southwest  Level Estimated
11:41AM 33.5905 123.4976 211° Southwest  Level Estimated
11:42AM 33.5121 123.4412 211° Southwest  Level Estimated
11:43AM 33.4337 123.3850 211° Southwest  Level Estimated
11:44AM 33.3552 123.3288 211° Southwest  Level Estimated
11:45AM 33.2767 123.2728 211° Southwest  Level Estimated
11:46AM 33.1982 123.2169 211° Southwest  Level Estimated
11:47AM 33.1197 123.1610 211° Southwest  Level Estimated
11:48AM 33.0412 123.1053 211° Southwest  Level Estimated
11:49AM 32.9626 123.0497 211° Southwest  Level Estimated
11:50AM 32.8840 122.9941 211° Southwest  Level Estimated
11:51AM 32.8054 122.9387 211° Southwest  Level Estimated
11:52AM 32.7267 122.8833 211° Southwest  Level Estimated
11:53AM 32.6480 122.8281 211° Southwest  Level Estimated
11:54AM 32.5693 122.7729 211° Southwest  Level Estimated
11:55AM 32.4906 122.7179 211° Southwest  Level Estimated
11:56AM 32.4119 122.6629 211° Southwest  Level Estimated
11:57AM 32.3331 122.6081 210° Southwest  Level Estimated
11:58AM 32.2543 122.5533 210° Southwest  Level Estimated
11:59AM 32.1755 122.4986 210° Southwest  Level Estimated
12:00PM 32.0966 122.4441 210° Southwest  Level Estimated
12:01PM 32.0178 122.3896 210° Southwest  Level Estimated
12:02PM 31.9389 122.3352 210° Southwest  Level Estimated
12:03PM 31.8600 122.2809 210° Southwest  Level Estimated
12:04PM 31.7810 122.2267 210° Southwest  Level Estimated
12:05PM 31.7021 122.1726 210° Southwest  Level Estimated
12:06PM 31.6231 122.1186 210° Southwest  Level Estimated
12:07PM 31.5441 122.0647 210° Southwest  Level Estimated
12:08PM 31.4651 122.0108 210° Southwest  Level Estimated
12:09PM 31.3860 121.9571 210° Southwest  Level Estimated
12:10PM 31.3070 121.9034 210° Southwest  Level Estimated
12:11PM 31.2279 121.8499 210° Southwest  Level Estimated
12:12PM 31.1488 121.7964 210° Southwest  Level Estimated
12:13PM 31.1428 121.7924 210° Southwest  Level Estimated
12:14PM 31.1428 121.7924 North  Level Estimated
12:15PM 31.1428 121.7924 North  Level Estimated
12:16PM 31.1428 121.7924 North  Level Estimated
12:17PM 31.1428 121.7924 North  Level Estimated
12:18PM 31.1428 121.7924 North  Level Estimated
12:19PM 31.1428 121.7924 North  Level Estimated
12:20PM 31.1428 121.7924 North  Level Estimated
12:21PM 31.1428 121.7924 North  Level Estimated
12:22PM 31.1428 121.7924 North  Level Estimated
12:23PM 31.1428 121.7924 North  Level Estimated
12:24PM 31.1428 121.7924 North  Level Estimated
12:25PM 31.1428 121.7924 North  Level Estimated
12:26PM 31.1428 121.7924 North  Level Estimated
12:27PM 31.1428 121.7924 North  Level Estimated

Login

Don't have an account? Register now (free) for customized features, flight alerts, and more!